Time;durP1;ratioP1;P1;durP2;ratioP2;P2;SDS_P1;SDS_P2;PMS_P1;PMS_P2;Temp;Humidity;BMP_temperature;BMP_pressure;BME280_temperature;BME280_humidity;BME280_pressure;Samples;Min_cycle;Max_cycle;Signal;HPM_P1;HPM_P2
2022/03/07 00:01:41;;;;;;;17.02;10.70;;;0.00;99.90;;;;;;476816;249;27611;-72
2022/03/07 00:03:42;;;;;;;15.55;10.15;;;0.00;99.90;;;;;;476804;249;27567;-75
2022/03/07 00:05:44;;;;;;;11.40;10.13;;;0.00;99.90;;;;;;476812;249;27611;-71
2022/03/07 00:07:45;;;;;;;13.27;10.25;;;-0.10;99.90;;;;;;476850;249;27542;-72
2022/03/07 00:09:46;;;;;;;13.98;10.40;;;-0.10;99.90;;;;;;476841;249;27557;-74
2022/03/07 00:11:47;;;;;;;13.15;9.88;;;-0.10;99.90;;;;;;476860;249;28137;-72
2022/03/07 00:13:49;;;;;;;11.70;9.18;;;-0.10;99.90;;;;;;476806;249;28080;-73
2022/03/07 00:15:50;;;;;;;13.95;10.60;;;-0.10;99.90;;;;;;476801;249;27584;-71
2022/03/07 00:17:51;;;;;;;14.27;10.20;;;-0.10;99.90;;;;;;476818;249;27544;-72
2022/03/07 00:19:53;;;;;;;13.60;10.05;;;-0.10;99.90;;;;;;476813;249;27581;-73
2022/03/07 00:21:54;;;;;;;14.82;9.07;;;-0.10;99.90;;;;;;476813;249;27507;-72
2022/03/07 00:23:55;;;;;;;15.18;10.32;;;-0.20;99.90;;;;;;476811;249;27651;-72
2022/03/07 00:25:56;;;;;;;14.52;10.40;;;-0.20;99.90;;;;;;476858;249;28766;-72
2022/03/07 00:27:58;;;;;;;14.85;11.05;;;-0.20;99.90;;;;;;476826;249;27973;-72
2022/03/07 00:29:59;;;;;;;12.73;9.90;;;-0.20;99.90;;;;;;476812;249;27536;-72
2022/03/07 00:32:00;;;;;;;16.75;9.93;;;-0.20;99.90;;;;;;476795;249;27526;-72
2022/03/07 00:34:01;;;;;;;14.27;10.45;;;-0.30;99.90;;;;;;476804;249;27602;-72
2022/03/07 00:36:03;;;;;;;11.23;9.82;;;-0.30;99.90;;;;;;476825;249;27546;-73
2022/03/07 00:38:04;;;;;;;13.35;9.85;;;-0.30;99.90;;;;;;476797;249;27507;-72
2022/03/07 00:40:06;;;;;;;12.05;9.38;;;-0.30;99.90;;;;;;476803;248;28012;-71
2022/03/07 00:42:06;;;;;;;10.82;8.82;;;-0.30;99.90;;;;;;476779;249;27983;-71
2022/03/07 00:44:08;;;;;;;11.02;8.90;;;-0.30;99.90;;;;;;476790;249;27557;-72
2022/03/07 00:46:09;;;;;;;16.85;10.25;;;-0.30;99.90;;;;;;476793;249;27639;-71
2022/03/07 00:48:10;;;;;;;13.75;10.38;;;-0.30;99.90;;;;;;476835;249;27591;-72
2022/03/07 00:50:11;;;;;;;13.50;9.93;;;-0.30;99.90;;;;;;476819;249;27558;-72
2022/03/07 00:52:13;;;;;;;13.18;9.52;;;-0.30;99.90;;;;;;476825;249;27651;-71
2022/03/07 00:54:14;;;;;;;11.43;9.88;;;-0.30;99.90;;;;;;476811;249;28038;-71
2022/03/07 00:56:15;;;;;;;13.57;9.75;;;-0.40;99.90;;;;;;476823;248;28123;-73
2022/03/07 00:58:16;;;;;;;13.60;9.80;;;-0.40;99.90;;;;;;476814;249;27527;-72
2022/03/07 01:00:18;;;;;;;11.02;9.40;;;-0.40;99.90;;;;;;476824;249;27574;-72
2022/03/07 01:02:19;;;;;;;14.18;9.80;;;-0.50;99.90;;;;;;476791;249;27653;-71
2022/03/07 01:04:20;;;;;;;12.00;9.50;;;-0.40;99.90;;;;;;476762;249;27562;-71
2022/03/07 01:06:22;;;;;;;11.35;8.65;;;-0.50;99.90;;;;;;476810;249;27659;-74
2022/03/07 01:08:23;;;;;;;15.40;9.07;;;-0.40;99.90;;;;;;476795;249;27668;-72
2022/03/07 01:10:24;;;;;;;11.30;8.85;;;-0.40;99.90;;;;;;476802;249;28021;-71
2022/03/07 01:12:25;;;;;;;11.77;8.68;;;-0.50;99.90;;;;;;476819;249;28086;-72
2022/03/07 01:14:26;;;;;;;14.70;9.07;;;-0.40;99.90;;;;;;476786;249;27565;-72
2022/03/07 01:16:28;;;;;;;12.50;8.65;;;-0.40;99.90;;;;;;476859;249;27551;-74
2022/03/07 01:18:29;;;;;;;11.02;8.73;;;-0.40;99.90;;;;;;476821;249;27515;-72
2022/03/07 01:20:30;;;;;;;13.25;9.18;;;-0.50;99.90;;;;;;476816;249;27647;-72
2022/03/07 01:22:32;;;;;;;12.88;9.40;;;-0.50;99.90;;;;;;476783;249;27536;-71
2022/03/07 01:24:36;;;;;;;13.00;9.20;;;-0.50;99.90;;;;;;476841;249;27937;-72
2022/03/07 01:26:35;;;;;;;13.62;9.77;;;-0.50;99.90;;;;;;476699;249;28046;-74
2022/03/07 01:28:35;;;;;;;16.58;9.95;;;-0.50;99.90;;;;;;476845;249;28120;-72
2022/03/07 01:30:37;;;;;;;13.62;8.75;;;-0.50;99.90;;;;;;476824;249;27584;-71
2022/03/07 01:32:38;;;;;;;11.95;9.57;;;-0.60;99.90;;;;;;476836;249;27629;-72
2022/03/07 01:34:39;;;;;;;11.38;9.43;;;-0.60;99.90;;;;;;476821;249;27546;-72
2022/03/07 01:36:40;;;;;;;13.88;11.02;;;-0.50;99.90;;;;;;476827;249;27552;-72
2022/03/07 01:38:42;;;;;;;10.45;9.45;;;-0.60;99.90;;;;;;476815;249;27522;-72
2022/03/07 01:40:44;;;;;;;13.62;9.73;;;-0.50;99.90;;;;;;476798;249;27994;-72
2022/03/07 01:42:44;;;;;;;14.10;9.95;;;-0.50;99.90;;;;;;476716;249;28046;-71
2022/03/07 01:44:45;;;;;;;12.90;10.20;;;-0.60;99.90;;;;;;476779;249;27557;-72
2022/03/07 01:46:47;;;;;;;16.17;9.95;;;-0.60;99.90;;;;;;476854;249;27551;-75
2022/03/07 01:48:48;;;;;;;12.55;10.18;;;-0.60;99.90;;;;;;476863;249;27622;-72
2022/03/07 01:50:49;;;;;;;14.32;8.80;;;-0.60;99.90;;;;;;476853;249;27522;-72
2022/03/07 01:52:50;;;;;;;12.25;9.38;;;-0.70;99.90;;;;;;476816;249;27588;-71
2022/03/07 01:54:52;;;;;;;14.93;10.43;;;-0.60;99.90;;;;;;476818;249;27990;-72
2022/03/07 01:56:53;;;;;;;12.45;9.90;;;-0.60;99.90;;;;;;476817;249;29149;-74
2022/03/07 01:58:54;;;;;;;12.15;9.85;;;-0.60;99.90;;;;;;476850;249;27623;-71
2022/03/07 02:00:55;;;;;;;13.40;10.32;;;-0.60;99.90;;;;;;476841;249;27551;-73
2022/03/07 02:02:57;;;;;;;11.70;9.48;;;-0.60;99.90;;;;;;476831;249;27600;-73
2022/03/07 02:04:58;;;;;;;13.88;10.10;;;-0.70;99.90;;;;;;476816;249;27638;-71
2022/03/07 02:06:59;;;;;;;10.27;9.18;;;-0.70;99.90;;;;;;476834;249;27938;-72
2022/03/07 02:09:00;;;;;;;13.30;9.57;;;-0.70;99.90;;;;;;476846;249;27957;-72
2022/03/07 02:11:02;;;;;;;11.85;9.93;;;-0.70;99.90;;;;;;476822;249;28196;-72
2022/03/07 02:13:03;;;;;;;11.70;9.48;;;-0.70;99.90;;;;;;476787;249;27550;-71
2022/03/07 02:15:05;;;;;;;13.25;9.30;;;-0.60;99.90;;;;;;476862;249;27548;-72
2022/03/07 02:17:05;;;;;;;10.80;9.30;;;-0.70;99.90;;;;;;476837;249;27537;-74
2022/03/07 02:19:07;;;;;;;17.62;10.45;;;-0.70;99.90;;;;;;476862;249;27508;-73
2022/03/07 02:21:11;;;;;;;12.90;10.00;;;-0.70;99.90;;;;;;476817;249;27559;-73
2022/03/07 02:23:09;;;;;;;12.98;10.10;;;-0.70;99.90;;;;;;476681;249;27973;-72
2022/03/07 02:25:10;;;;;;;12.88;9.60;;;-0.70;99.90;;;;;;476815;249;28028;-72
2022/03/07 02:27:12;;;;;;;13.05;9.55;;;-0.70;99.90;;;;;;476847;249;27672;-75
2022/03/07 02:29:13;;;;;;;15.65;10.63;;;-0.70;99.90;;;;;;476823;249;27640;-72
2022/03/07 02:31:14;;;;;;;12.00;9.40;;;-0.70;99.90;;;;;;476824;249;27636;-73
2022/03/07 02:33:16;;;;;;;14.20;9.85;;;-0.80;99.90;;;;;;476834;248;27588;-72
2022/03/07 02:35:17;;;;;;;11.12;9.25;;;-0.80;99.90;;;;;;476825;249;27554;-72
2022/03/07 02:37:18;;;;;;;12.73;9.07;;;-0.70;99.90;;;;;;476807;249;28020;-75
2022/03/07 02:39:19;;;;;;;12.30;8.80;;;-0.80;99.90;;;;;;476814;249;29070;-72
2022/03/07 02:41:21;;;;;;;13.68;9.25;;;-0.90;99.90;;;;;;476791;249;27532;-72
2022/03/07 02:43:22;;;;;;;14.00;9.30;;;-0.90;99.90;;;;;;476811;248;27587;-72
2022/03/07 02:45:23;;;;;;;11.02;8.80;;;-0.90;99.90;;;;;;476805;249;27566;-72
2022/03/07 02:47:26;;;;;;;11.25;8.60;;;-0.90;99.90;;;;;;476839;249;27654;-73
2022/03/07 02:49:26;;;;;;;13.27;9.70;;;-1.00;99.90;;;;;;476764;249;27511;-72
2022/03/07 02:51:27;;;;;;;10.57;8.57;;;-0.90;99.90;;;;;;476794;249;27550;-72
2022/03/07 02:53:28;;;;;;;11.50;9.20;;;-0.90;99.90;;;;;;476789;249;28726;-72
2022/03/07 02:55:29;;;;;;;14.15;9.65;;;-0.90;99.90;;;;;;476864;249;28105;-72
2022/03/07 02:57:31;;;;;;;12.45;9.10;;;-0.90;99.90;;;;;;476831;249;27535;-73
2022/03/07 02:59:32;;;;;;;14.87;9.50;;;-0.90;99.90;;;;;;476840;249;27570;-72
2022/03/07 03:01:33;;;;;;;12.93;8.82;;;-0.90;99.90;;;;;;476847;249;27638;-72
2022/03/07 03:03:34;;;;;;;14.77;9.38;;;-0.90;99.90;;;;;;476842;249;28009;-75
2022/03/07 03:05:36;;;;;;;11.00;8.68;;;-0.90;99.90;;;;;;476842;249;27538;-72
2022/03/07 03:07:37;;;;;;;9.52;8.48;;;-1.00;99.90;;;;;;476856;249;27622;-73
2022/03/07 03:09:39;;;;;;;12.93;9.00;;;-1.00;99.90;;;;;;476835;249;27974;-72
2022/03/07 03:11:39;;;;;;;10.23;9.20;;;-1.00;99.90;;;;;;476812;249;28098;-72
2022/03/07 03:13:41;;;;;;;9.68;8.55;;;-1.00;99.90;;;;;;476835;249;27526;-72
2022/03/07 03:15:42;;;;;;;10.18;8.73;;;-1.00;99.90;;;;;;476838;249;27596;-72
2022/03/07 03:17:43;;;;;;;9.90;8.60;;;-1.00;99.90;;;;;;476786;249;27553;-73
2022/03/07 03:19:44;;;;;;;9.23;8.15;;;-1.00;99.90;;;;;;476819;249;27528;-71
2022/03/07 03:21:47;;;;;;;9.32;8.32;;;-1.00;99.90;;;;;;476767;249;27598;-72
2022/03/07 03:23:48;;;;;;;9.93;8.05;;;-1.10;99.90;;;;;;476767;249;27670;-72
2022/03/07 03:25:49;;;;;;;8.85;7.93;;;-1.00;99.90;;;;;;476796;249;28119;-72
2022/03/07 03:27:50;;;;;;;10.27;7.68;;;-1.10;99.90;;;;;;476724;247;27956;-71
2022/03/07 03:29:52;;;;;;;9.38;8.15;;;-1.10;99.90;;;;;;476764;249;28034;-72
2022/03/07 03:31:53;;;;;;;9.15;7.40;;;-1.10;99.90;;;;;;476795;249;27546;-72
2022/03/07 03:33:54;;;;;;;9.30;7.50;;;-1.10;99.90;;;;;;476799;249;27688;-72
2022/03/07 03:35:55;;;;;;;9.23;6.85;;;-1.20;99.90;;;;;;476829;249;27547;-75
2022/03/07 03:37:57;;;;;;;9.18;7.12;;;-1.20;99.90;;;;;;476798;248;27565;-72
2022/03/07 03:39:58;;;;;;;8.18;6.65;;;-1.10;99.90;;;;;;476798;249;27555;-72
2022/03/07 03:41:59;;;;;;;7.95;6.62;;;-1.10;99.90;;;;;;476802;249;27575;-72
2022/03/07 03:44:00;;;;;;;9.38;7.22;;;-1.20;99.90;;;;;;476804;249;27564;-72
2022/03/07 03:46:02;;;;;;;9.05;6.93;;;-1.20;99.90;;;;;;476848;249;28009;-75
2022/03/07 03:48:03;;;;;;;9.10;6.03;;;-1.30;99.90;;;;;;476815;249;27954;-72
2022/03/07 03:50:04;;;;;;;7.43;6.15;;;-1.20;99.90;;;;;;476798;249;28061;-73
2022/03/07 03:52:05;;;;;;;7.50;6.75;;;-1.20;99.90;;;;;;476820;249;27513;-72
2022/03/07 03:54:07;;;;;;;8.40;6.28;;;-1.20;99.90;;;;;;476810;249;27621;-72
2022/03/07 03:56:08;;;;;;;7.85;6.80;;;-1.20;99.90;;;;;;476836;249;27567;-71
2022/03/07 03:58:09;;;;;;;7.25;6.50;;;-1.20;99.90;;;;;;476840;249;27571;-72
2022/03/07 04:00:11;;;;;;;6.40;5.80;;;-1.20;99.90;;;;;;476824;249;27547;-72
2022/03/07 04:02:12;;;;;;;7.22;6.53;;;-1.20;99.90;;;;;;476794;249;27516;-72
2022/03/07 04:04:13;;;;;;;8.20;6.45;;;-1.20;99.90;;;;;;476773;249;27592;-72
2022/03/07 04:06:14;;;;;;;8.20;6.37;;;-1.20;99.90;;;;;;476814;249;28116;-71
2022/03/07 04:08:16;;;;;;;7.20;6.50;;;-1.20;99.90;;;;;;476834;249;29065;-72
2022/03/07 04:10:18;;;;;;;7.30;6.60;;;-1.30;99.90;;;;;;476805;249;29124;-72
2022/03/07 04:12:19;;;;;;;7.40;6.60;;;-1.30;99.90;;;;;;476820;249;27642;-72
2022/03/07 04:14:21;;;;;;;10.02;7.35;;;-1.30;99.90;;;;;;476807;249;28038;-71
2022/03/07 04:16:22;;;;;;;6.90;5.97;;;-1.30;99.90;;;;;;476780;249;28008;-72
2022/03/07 04:18:23;;;;;;;6.43;5.82;;;-1.30;99.90;;;;;;476824;249;29163;-73
2022/03/07 04:20:24;;;;;;;12.07;6.70;;;-1.30;99.90;;;;;;476888;249;27593;-72
2022/03/07 04:22:25;;;;;;;8.65;5.90;;;-1.30;99.90;;;;;;476878;249;27546;-72
2022/03/07 04:24:30;;;;;;;7.97;6.60;;;-1.30;99.90;;;;;;476838;249;27595;-72
2022/03/07 04:26:28;;;;;;;6.45;5.85;;;-1.30;99.90;;;;;;476675;249;27574;-72
2022/03/07 04:28:29;;;;;;;6.43;5.90;;;-1.30;99.90;;;;;;476847;247;27903;-73
2022/03/07 04:30:32;;;;;;;6.93;6.22;;;-1.30;99.90;;;;;;476855;249;27511;-72
2022/03/07 04:32:36;;;;;;;8.20;6.90;;;-1.20;99.90;;;;;;476769;249;27642;-74
2022/03/07 04:34:33;;;;;;;6.97;6.05;;;-1.20;99.90;;;;;;476627;249;28035;-72
2022/03/07 04:36:35;;;;;;;6.30;5.70;;;-1.20;99.90;;;;;;476824;249;28153;-72
2022/03/07 04:38:35;;;;;;;5.93;5.37;;;-1.20;99.90;;;;;;476821;249;28115;-76
2022/03/07 04:40:37;;;;;;;7.20;6.18;;;-1.20;99.90;;;;;;476844;248;27510;-72
2022/03/07 04:42:38;;;;;;;6.90;6.18;;;-1.20;99.90;;;;;;476840;249;27548;-72
2022/03/07 04:44:39;;;;;;;7.03;6.32;;;-1.30;99.90;;;;;;476821;249;27530;-72
2022/03/07 04:46:40;;;;;;;6.87;6.25;;;-1.20;99.90;;;;;;476832;249;27588;-72
2022/03/07 04:48:42;;;;;;;6.10;5.50;;;-1.20;99.90;;;;;;476846;249;27558;-73
2022/03/07 04:50:43;;;;;;;6.85;6.15;;;-1.20;99.90;;;;;;476854;248;27559;-72
2022/03/07 04:52:44;;;;;;;7.30;6.50;;;-1.20;99.90;;;;;;476834;249;27589;-72
2022/03/07 04:54:45;;;;;;;6.65;6.05;;;-1.20;99.90;;;;;;476821;249;27951;-72
2022/03/07 04:56:48;;;;;;;8.15;6.10;;;-1.20;99.90;;;;;;476782;249;27550;-71
2022/03/07 04:58:48;;;;;;;7.05;6.00;;;-1.20;99.90;;;;;;476791;249;27587;-73
2022/03/07 05:00:49;;;;;;;7.32;6.62;;;-1.20;99.90;;;;;;476847;249;27609;-71
2022/03/07 05:02:51;;;;;;;7.10;6.15;;;-1.30;99.90;;;;;;476813;249;27651;-73
2022/03/07 05:04:52;;;;;;;7.40;6.70;;;-1.30;99.90;;;;;;476820;249;27502;-72
2022/03/07 05:06:53;;;;;;;8.10;7.32;;;-1.30;99.90;;;;;;476804;249;27589;-72
2022/03/07 05:08:54;;;;;;;7.45;6.75;;;-1.30;99.90;;;;;;476836;249;27592;-73
2022/03/07 05:10:55;;;;;;;7.62;6.93;;;-1.30;99.90;;;;;;476824;249;27633;-72
2022/03/07 05:12:57;;;;;;;9.98;6.95;;;-1.30;99.90;;;;;;476808;247;27560;-73
2022/03/07 05:14:58;;;;;;;8.10;6.72;;;-1.40;99.90;;;;;;476803;249;27990;-72
2022/03/07 05:16:59;;;;;;;7.22;6.50;;;-1.40;99.90;;;;;;476786;249;29142;-72
2022/03/07 05:19:00;;;;;;;9.32;8.05;;;-1.40;99.90;;;;;;476799;249;27986;-73
2022/03/07 05:21:02;;;;;;;8.40;6.18;;;-1.40;99.90;;;;;;476741;249;27575;-72
2022/03/07 05:23:03;;;;;;;7.53;6.82;;;-1.40;99.90;;;;;;476335;249;27598;-72
2022/03/07 05:25:04;;;;;;;7.07;6.35;;;-1.40;99.90;;;;;;476308;249;27566;-73
2022/03/07 05:27:06;;;;;;;7.18;6.00;;;-1.50;99.90;;;;;;476846;249;27530;-72
2022/03/07 05:29:07;;;;;;;7.35;6.62;;;-1.50;99.90;;;;;;476815;249;27558;-72
2022/03/07 05:31:12;;;;;;;8.90;6.57;;;-1.50;99.90;;;;;;476808;249;27561;-72
2022/03/07 05:33:09;;;;;;;7.37;6.65;;;-1.50;99.90;;;;;;476653;249;27540;-72
2022/03/07 05:35:11;;;;;;;7.70;6.90;;;-1.50;99.90;;;;;;476838;249;28047;-74
2022/03/07 05:37:12;;;;;;;7.60;6.55;;;-1.50;99.90;;;;;;476829;249;29099;-72
2022/03/07 05:39:13;;;;;;;9.40;7.05;;;-1.60;99.90;;;;;;476829;249;27585;-72
2022/03/07 05:41:14;;;;;;;7.68;6.30;;;-1.60;99.90;;;;;;476838;249;27625;-72
2022/03/07 05:43:16;;;;;;;6.70;6.00;;;-1.60;99.90;;;;;;476837;249;27550;-72
2022/03/07 05:45:17;;;;;;;8.82;7.03;;;-1.60;99.90;;;;;;476844;249;27567;-74
2022/03/07 05:47:18;;;;;;;7.55;6.75;;;-1.60;99.90;;;;;;476838;249;27600;-71
2022/03/07 05:49:19;;;;;;;8.20;6.97;;;-1.60;99.90;;;;;;476845;249;27546;-72
2022/03/07 05:51:24;;;;;;;7.45;6.75;;;-1.60;99.90;;;;;;476839;249;27594;-72
2022/03/07 05:53:24;;;;;;;7.32;6.60;;;-1.60;99.90;;;;;;476805;249;27967;-72
2022/03/07 05:55:26;;;;;;;8.70;6.45;;;-1.60;99.90;;;;;;476832;249;27554;-73
2022/03/07 05:57:27;;;;;;;8.05;6.65;;;-1.70;99.90;;;;;;476858;249;27643;-75
2022/03/07 05:59:28;;;;;;;8.65;7.43;;;-1.70;99.90;;;;;;476857;249;27580;-71
2022/03/07 06:01:30;;;;;;;8.70;7.00;;;-1.70;99.90;;;;;;476854;249;27560;-72
2022/03/07 06:03:31;;;;;;;9.65;8.00;;;-1.70;99.90;;;;;;476846;249;27634;-72
2022/03/07 06:05:32;;;;;;;11.35;6.72;;;-1.70;99.90;;;;;;476850;249;27547;-72
2022/03/07 06:07:33;;;;;;;7.87;7.00;;;-1.80;99.90;;;;;;476881;249;27555;-73
2022/03/07 06:09:35;;;;;;;7.72;6.82;;;-1.80;99.90;;;;;;476887;249;27968;-72
2022/03/07 06:11:36;;;;;;;11.45;7.30;;;-1.70;99.90;;;;;;476862;249;28120;-72
2022/03/07 06:13:37;;;;;;;10.10;7.37;;;-1.80;99.90;;;;;;476863;249;27584;-72
2022/03/07 06:15:43;;;;;;;8.25;6.95;;;-1.80;99.90;;;;;;476877;249;27554;-72
2022/03/07 06:17:40;;;;;;;11.23;7.87;;;-1.80;99.90;;;;;;476613;249;27551;-73
2022/03/07 06:19:41;;;;;;;11.20;7.97;;;-1.80;99.90;;;;;;476847;249;27499;-72
2022/03/07 06:21:42;;;;;;;9.55;7.30;;;-1.80;99.90;;;;;;476834;249;27634;-72
2022/03/07 06:23:43;;;;;;;9.18;7.90;;;-1.80;99.90;;;;;;476813;249;27566;-72
2022/03/07 06:25:45;;;;;;;11.93;7.95;;;-1.80;99.90;;;;;;476852;249;28033;-71
2022/03/07 06:27:46;;;;;;;10.90;7.10;;;-1.80;99.90;;;;;;476858;249;28023;-73
2022/03/07 06:29:47;;;;;;;12.00;8.13;;;-1.80;99.90;;;;;;476799;249;27629;-72
2022/03/07 06:31:49;;;;;;;10.50;8.20;;;-1.80;99.90;;;;;;476816;249;27540;-72
2022/03/07 06:33:50;;;;;;;10.65;8.07;;;-1.80;99.90;;;;;;476816;249;27518;-71
2022/03/07 06:35:51;;;;;;;11.73;8.40;;;-1.80;99.90;;;;;;476845;249;27631;-72
2022/03/07 06:37:52;;;;;;;9.15;7.62;;;-1.80;99.90;;;;;;476823;249;27632;-73
2022/03/07 06:39:53;;;;;;;8.20;7.15;;;-1.80;99.90;;;;;;476830;249;27594;-72
2022/03/07 06:41:55;;;;;;;9.52;7.25;;;-1.80;99.90;;;;;;476832;249;27643;-72
2022/03/07 06:43:56;;;;;;;10.73;8.15;;;-1.90;99.90;;;;;;476796;249;28809;-72
2022/03/07 06:45:57;;;;;;;11.20;7.78;;;-1.90;99.90;;;;;;476847;249;28078;-72
2022/03/07 06:47:59;;;;;;;11.75;8.30;;;-1.90;99.90;;;;;;476836;249;27547;-73
2022/03/07 06:50:00;;;;;;;9.25;7.32;;;-1.90;99.90;;;;;;476843;249;27505;-72
2022/03/07 06:52:01;;;;;;;10.65;8.13;;;-1.80;99.90;;;;;;476881;249;27557;-72
2022/03/07 06:54:02;;;;;;;8.80;7.62;;;-1.90;99.90;;;;;;476890;249;27520;-72
2022/03/07 06:56:03;;;;;;;9.85;8.32;;;-1.90;99.90;;;;;;476836;249;27569;-72
2022/03/07 06:58:05;;;;;;;9.85;8.27;;;-1.80;99.90;;;;;;476841;249;27679;-75
2022/03/07 07:00:06;;;;;;;10.77;8.20;;;-1.90;99.90;;;;;;476834;249;27989;-72
2022/03/07 07:02:07;;;;;;;11.12;9.05;;;-1.80;99.90;;;;;;476836;249;28198;-73
2022/03/07 07:04:08;;;;;;;12.73;9.27;;;-1.80;99.90;;;;;;476807;249;27638;-72
2022/03/07 07:06:10;;;;;;;12.70;7.95;;;-1.70;99.90;;;;;;476840;249;27531;-72
2022/03/07 07:08:11;;;;;;;9.20;8.13;;;-1.70;99.90;;;;;;476813;249;27544;-73
2022/03/07 07:10:13;;;;;;;10.35;8.68;;;-1.60;99.90;;;;;;476813;249;27583;-72
2022/03/07 07:12:13;;;;;;;9.60;8.15;;;-1.60;99.90;;;;;;476835;249;27685;-72
2022/03/07 07:14:15;;;;;;;12.90;8.90;;;-1.60;99.90;;;;;;476820;249;27529;-71
2022/03/07 07:16:16;;;;;;;11.35;8.85;;;-1.60;99.90;;;;;;476817;249;27607;-72
2022/03/07 07:18:17;;;;;;;11.95;9.15;;;-1.60;99.90;;;;;;476820;249;28071;-73
2022/03/07 07:20:18;;;;;;;16.12;8.20;;;-1.50;99.90;;;;;;476795;249;27966;-72
2022/03/07 07:22:20;;;;;;;9.88;8.85;;;-1.50;99.90;;;;;;476824;249;27674;-72
2022/03/07 07:24:21;;;;;;;13.77;9.43;;;-1.60;99.90;;;;;;476812;249;27559;-72
2022/03/07 07:26:22;;;;;;;11.52;9.27;;;-1.50;99.90;;;;;;476816;249;27512;-72
2022/03/07 07:28:23;;;;;;;12.15;8.48;;;-1.50;99.90;;;;;;476787;249;27676;-72
2022/03/07 07:30:25;;;;;;;11.90;8.85;;;-1.50;99.90;;;;;;476763;249;27528;-72
2022/03/07 07:32:26;;;;;;;10.70;7.87;;;-1.50;99.90;;;;;;476818;249;27567;-73
2022/03/07 07:34:27;;;;;;;14.70;8.75;;;-1.50;99.90;;;;;;476831;249;28051;-75
2022/03/07 07:36:29;;;;;;;12.23;8.70;;;-1.60;99.90;;;;;;476853;249;27983;-72
2022/03/07 07:38:30;;;;;;;10.80;8.90;;;-1.60;99.90;;;;;;476826;249;27531;-72
2022/03/07 07:40:31;;;;;;;12.20;8.98;;;-1.50;99.90;;;;;;476848;249;27507;-72
2022/03/07 07:42:32;;;;;;;12.85;8.82;;;-1.40;99.90;;;;;;476837;249;27630;-72
2022/03/07 07:44:34;;;;;;;10.02;8.35;;;-1.50;99.90;;;;;;476843;249;27915;-74
2022/03/07 07:46:35;;;;;;;11.20;8.75;;;-1.50;99.90;;;;;;476847;248;27611;-72
2022/03/07 07:48:36;;;;;;;9.40;7.97;;;-1.40;99.90;;;;;;476867;249;27969;-73
2022/03/07 07:50:37;;;;;;;11.25;8.85;;;-1.30;99.90;;;;;;476810;249;27996;-72
2022/03/07 07:52:39;;;;;;;11.70;9.52;;;-1.30;99.90;;;;;;476772;249;28063;-72
2022/03/07 07:54:40;;;;;;;9.63;8.10;;;-1.20;99.90;;;;;;476829;249;27552;-72
2022/03/07 07:56:41;;;;;;;10.65;8.77;;;-1.20;99.90;;;;;;476841;249;27511;-72
2022/03/07 07:58:42;;;;;;;10.27;8.18;;;-1.20;99.90;;;;;;476837;249;27543;-72
2022/03/07 08:00:44;;;;;;;10.38;8.40;;;-1.20;99.90;;;;;;476832;249;27574;-72
2022/03/07 08:02:45;;;;;;;12.07;9.48;;;-1.20;99.90;;;;;;476805;249;27563;-73
2022/03/07 08:04:46;;;;;;;10.50;8.57;;;-1.20;99.90;;;;;;476807;249;28122;-72
2022/03/07 08:06:47;;;;;;;10.93;9.02;;;-1.20;99.90;;;;;;476833;249;27973;-73
2022/03/07 08:08:49;;;;;;;13.55;9.63;;;-1.30;99.90;;;;;;476829;249;27555;-72
2022/03/07 08:10:50;;;;;;;9.25;7.82;;;-1.30;99.90;;;;;;476834;249;27522;-72
2022/03/07 08:12:51;;;;;;;10.93;8.63;;;-1.30;99.90;;;;;;476795;249;27585;-72
2022/03/07 08:14:52;;;;;;;9.85;8.52;;;-1.20;99.90;;;;;;476825;249;27637;-72
2022/03/07 08:16:54;;;;;;;10.15;8.40;;;-1.20;99.90;;;;;;476823;249;27667;-72
2022/03/07 08:18:55;;;;;;;10.70;8.32;;;-1.30;99.90;;;;;;476825;249;27586;-72
2022/03/07 08:20:59;;;;;;;12.02;9.20;;;-1.30;99.90;;;;;;476797;249;27626;-72
2022/03/07 08:22:57;;;;;;;14.68;9.73;;;-1.20;99.90;;;;;;476697;249;28042;-73
2022/03/07 08:24:59;;;;;;;13.75;9.02;;;-1.20;99.90;;;;;;476819;249;28137;-72
2022/03/07 08:27:00;;;;;;;15.20;9.80;;;-1.20;99.90;;;;;;476811;249;27516;-72
2022/03/07 08:29:01;;;;;;;11.43;8.75;;;-1.20;99.90;;;;;;476833;249;27570;-72
2022/03/07 08:31:03;;;;;;;13.70;8.90;;;-1.10;99.90;;;;;;476793;249;27494;-71
2022/03/07 08:33:04;;;;;;;10.65;8.85;;;-1.00;99.90;;;;;;476792;249;27686;-72
2022/03/07 08:35:05;;;;;;;12.95;8.80;;;-0.90;99.90;;;;;;476834;249;27542;-74
2022/03/07 08:37:06;;;;;;;11.25;8.38;;;-1.00;99.90;;;;;;476774;249;27939;-72
2022/03/07 08:39:07;;;;;;;10.77;8.65;;;-0.90;99.90;;;;;;476820;249;28007;-72
2022/03/07 08:41:09;;;;;;;10.00;7.90;;;-0.70;99.90;;;;;;476823;249;27576;-72
2022/03/07 08:43:10;;;;;;;9.38;8.15;;;-0.70;99.90;;;;;;476802;248;27567;-72
2022/03/07 08:45:11;;;;;;;10.75;9.05;;;-0.70;99.90;;;;;;476806;249;27617;-74
2022/03/07 08:47:13;;;;;;;9.63;8.52;;;-0.60;99.90;;;;;;476798;249;27500;-71
2022/03/07 08:49:14;;;;;;;8.98;8.02;;;-0.70;99.90;;;;;;476796;249;27598;-72
2022/03/07 08:51:15;;;;;;;9.45;7.82;;;-0.80;99.90;;;;;;476831;249;27516;-72
2022/03/07 08:53:16;;;;;;;9.27;8.27;;;-0.70;99.90;;;;;;476818;249;27502;-71
2022/03/07 08:55:18;;;;;;;9.15;7.72;;;-0.60;99.90;;;;;;476865;249;28098;-72
2022/03/07 08:57:19;;;;;;;12.07;7.97;;;-0.40;99.90;;;;;;476811;249;27974;-72
2022/03/07 08:59:20;;;;;;;12.13;7.00;;;-0.40;99.90;;;;;;476850;249;27636;-72
2022/03/07 09:01:21;;;;;;;14.73;8.88;;;-0.40;99.90;;;;;;476817;249;27571;-72
2022/03/07 09:03:23;;;;;;;14.23;9.13;;;-0.40;99.90;;;;;;476808;249;27536;-72
2022/03/07 09:05:24;;;;;;;10.35;8.48;;;-0.30;99.90;;;;;;476828;249;27622;-73
2022/03/07 09:07:28;;;;;;;11.98;9.32;;;-0.40;99.90;;;;;;476826;249;27519;-72
2022/03/07 09:09:29;;;;;;;12.07;9.05;;;-0.40;99.90;;;;;;476844;249;27962;-72
2022/03/07 09:11:30;;;;;;;12.23;9.73;;;-0.30;99.90;;;;;;476824;249;27637;-72
2022/03/07 09:13:31;;;;;;;10.82;8.40;;;-0.30;99.90;;;;;;476863;249;27652;-72
2022/03/07 09:15:33;;;;;;;10.13;8.60;;;-0.20;99.90;;;;;;476857;248;27503;-72
2022/03/07 09:17:34;;;;;;;13.05;9.70;;;-0.10;99.90;;;;;;476970;249;27647;-72
2022/03/07 09:19:35;;;;;;;14.80;8.70;;;-0.10;99.90;;;;;;476888;249;27514;-72
2022/03/07 09:21:37;;;;;;;10.68;8.40;;;0.00;99.90;;;;;;476815;249;28076;-72
2022/03/07 09:23:38;;;;;;;12.32;8.50;;;0.00;99.90;;;;;;476887;249;28113;-72
2022/03/07 09:25:39;;;;;;;10.55;8.57;;;-0.10;99.90;;;;;;476842;249;27995;-72
2022/03/07 09:27:42;;;;;;;13.15;8.93;;;0.00;99.90;;;;;;476854;249;27561;-72
2022/03/07 09:29:42;;;;;;;11.52;9.43;;;0.10;99.90;;;;;;476733;249;27590;-72
2022/03/07 09:31:43;;;;;;;13.02;9.02;;;-0.10;99.90;;;;;;476851;249;27547;-72
2022/03/07 09:33:44;;;;;;;12.07;9.15;;;0.10;99.90;;;;;;476872;249;27564;-71
2022/03/07 09:35:45;;;;;;;9.77;8.38;;;0.20;99.90;;;;;;476873;249;27503;-72
2022/03/07 09:37:47;;;;;;;11.40;8.80;;;0.30;99.90;;;;;;476900;249;27552;-73
2022/03/07 09:39:48;;;;;;;12.88;9.50;;;0.40;99.90;;;;;;476898;249;27511;-72
2022/03/07 09:41:49;;;;;;;11.90;9.45;;;0.30;99.90;;;;;;476828;249;28003;-72
2022/03/07 09:43:50;;;;;;;10.85;9.43;;;0.30;99.90;;;;;;476878;249;29216;-73
2022/03/07 09:45:52;;;;;;;10.77;8.68;;;0.50;99.90;;;;;;476861;249;27959;-72
2022/03/07 09:47:53;;;;;;;12.05;10.00;;;0.50;99.90;;;;;;476836;249;27552;-72
2022/03/07 09:49:54;;;;;;;10.65;8.50;;;0.60;99.90;;;;;;476817;249;27571;-72
2022/03/07 09:51:55;;;;;;;11.52;9.77;;;0.50;99.90;;;;;;476824;249;27558;-72
2022/03/07 09:53:57;;;;;;;14.00;9.70;;;0.40;99.90;;;;;;476843;249;27555;-74
2022/03/07 09:55:58;;;;;;;11.73;9.70;;;0.40;99.90;;;;;;476848;249;27954;-72
2022/03/07 09:57:59;;;;;;;11.57;9.25;;;0.60;99.90;;;;;;476820;249;28118;-72
2022/03/07 10:00:00;;;;;;;12.43;9.55;;;0.50;99.90;;;;;;476856;249;27613;-73
2022/03/07 10:02:02;;;;;;;12.80;9.32;;;0.70;99.90;;;;;;476830;249;27531;-72
2022/03/07 10:04:03;;;;;;;9.38;8.10;;;0.70;99.90;;;;;;476862;249;27625;-72
2022/03/07 10:06:04;;;;;;;10.02;8.35;;;0.70;99.90;;;;;;476813;249;27583;-72
2022/03/07 10:08:05;;;;;;;11.45;9.25;;;0.80;99.90;;;;;;476787;249;27638;-73
2022/03/07 10:10:07;;;;;;;12.20;9.05;;;0.70;99.90;;;;;;476787;249;27507;-72
2022/03/07 10:12:08;;;;;;;12.10;9.85;;;0.70;99.90;;;;;;476793;249;27992;-72
2022/03/07 10:14:10;;;;;;;14.20;9.13;;;0.80;99.90;;;;;;476859;249;28034;-74
2022/03/07 10:16:10;;;;;;;12.65;9.45;;;0.80;99.90;;;;;;476784;249;27523;-72
2022/03/07 10:18:12;;;;;;;12.37;9.00;;;0.90;99.90;;;;;;476830;247;27551;-72
2022/03/07 10:20:13;;;;;;;12.32;9.00;;;1.00;99.90;;;;;;476816;249;27508;-71
2022/03/07 10:22:14;;;;;;;12.63;9.68;;;0.90;99.90;;;;;;476837;249;27574;-72
2022/03/07 10:24:15;;;;;;;12.60;10.00;;;1.00;99.90;;;;;;476857;249;27578;-75
2022/03/07 10:26:17;;;;;;;13.73;9.95;;;1.00;99.90;;;;;;476831;249;27591;-72